Time;durP1;ratioP1;P1;durP2;ratioP2;P2;SDS_P1;SDS_P2;PMS_P1;PMS_P2;Temp;Humidity;BMP_temperature;BMP_pressure;BME280_temperature;BME280_humidity;BME280_pressure;Samples;Min_cycle;Max_cycle;Signal;HPM_P1;HPM_P2
2020/12/29 00:01:37;;;;;;;0.60;0.60;;;1.50;99.90;;;1.80;100.00;-19696.69;5072668;28;20184;-65
2020/12/29 00:04:06;;;;;;;0.60;0.60;;;1.60;99.90;;;1.82;100.00;-19996.09;5071299;28;20761;-64
2020/12/29 00:06:33;;;;;;;0.60;0.50;;;1.60;99.90;;;1.86;100.00;-20194.78;5072978;28;20169;-64
2020/12/29 00:09:00;;;;;;;0.60;0.50;;;1.60;99.90;;;1.86;100.00;-20407.19;5073040;28;20177;-64
2020/12/29 00:11:30;;;;;;;0.60;0.60;;;1.60;99.90;;;1.75;100.00;-20594.31;5070639;28;20192;-65
2020/12/29 00:13:57;;;;;;;0.60;0.60;;;1.50;99.90;;;1.73;100.00;-20728.94;5072861;28;20561;-64
2020/12/29 00:16:24;;;;;;;0.60;0.50;;;1.50;99.90;;;1.66;100.00;-20727.13;5058989;28;20186;-66
2020/12/29 00:18:51;;;;;;;0.60;0.57;;;1.50;99.90;;;1.59;100.00;-20725.03;5052154;28;20221;-65
2020/12/29 00:21:20;;;;;;;0.60;0.50;;;1.30;99.90;;;1.47;100.00;-20721.66;5052957;28;20185;-65
2020/12/29 00:23:47;;;;;;;0.60;0.52;;;1.30;99.90;;;1.60;100.00;-20725.28;5052582;28;20291;-65
2020/12/29 00:26:15;;;;;;;0.60;0.50;;;1.40;99.90;;;1.62;100.00;-20725.84;5063770;28;20193;-64
2020/12/29 00:28:42;;;;;;;0.60;0.60;;;1.30;99.90;;;1.61;100.00;-20725.56;5072732;28;20204;-65
2020/12/29 00:31:10;;;;;;;0.60;0.50;;;1.30;99.90;;;1.56;100.00;-20724.31;5073349;28;20696;-64
2020/12/29 00:33:37;;;;;;;0.60;0.50;;;1.30;99.90;;;1.50;100.00;-20722.50;5073054;28;20570;-64
2020/12/29 00:36:06;;;;;;;0.60;0.50;;;1.20;99.90;;;1.33;100.00;-20717.91;5071302;28;20212;-65
2020/12/29 00:38:33;;;;;;;0.60;0.50;;;1.20;99.90;;;1.35;100.00;-20718.59;5072706;28;20192;-64
2020/12/29 00:41:00;;;;;;;0.60;0.60;;;1.20;99.90;;;1.39;100.00;-20719.72;5061474;28;20213;-65
2020/12/29 00:43:27;;;;;;;0.60;0.50;;;1.20;99.90;;;1.35;100.00;-20718.59;5052710;28;20201;-64
2020/12/29 00:45:54;;;;;;;0.60;0.50;;;1.20;99.90;;;1.40;100.00;-20720.00;5054850;28;20645;-64
2020/12/29 00:48:22;;;;;;;0.60;0.50;;;1.20;99.90;;;1.39;100.00;-20719.72;5059093;28;20245;-64
2020/12/29 00:50:49;;;;;;;0.60;0.52;;;1.10;99.90;;;1.44;100.00;-20721.09;5073875;28;20311;-66
2020/12/29 00:53:16;;;;;;;0.60;0.50;;;1.20;99.90;;;1.63;100.00;-20726.13;5071917;28;20674;-65
2020/12/29 00:55:51;;;;;;;0.60;0.50;;;1.40;99.90;;;1.62;100.00;-20726.00;5066333;28;20213;-66
2020/12/29 00:58:18;;;;;;;0.60;0.60;;;1.30;99.90;;;1.58;100.00;-20724.75;5055349;28;20205;-64
2020/12/29 01:00:45;;;;;;;0.60;0.60;;;1.30;99.90;;;1.42;100.00;-20720.53;5055169;28;20198;-65
2020/12/29 01:03:12;;;;;;;0.60;0.60;;;1.20;99.90;;;1.49;100.00;-20722.22;5056220;28;20213;-64
2020/12/29 01:05:40;;;;;;;0.60;0.50;;;1.30;99.90;;;1.43;100.00;-20720.81;5070481;28;20193;-64
2020/12/29 01:08:07;;;;;;;0.60;0.50;;;1.20;99.90;;;1.50;100.00;-20722.50;5076123;28;20200;-65
2020/12/29 01:10:45;;;;;;;0.60;0.50;;;1.20;99.90;;;1.52;100.00;-20723.19;5074278;28;20583;-64
2020/12/29 01:13:33;;;;;;;0.60;0.50;;;1.30;99.90;;;1.62;100.00;-20725.84;5074822;28;20775;-65
2020/12/29 01:16:01;;;;;;;0.60;0.50;;;1.30;99.90;;;1.70;100.00;-20728.09;5074689;28;20197;-66
2020/12/29 01:18:31;;;;;;;0.60;0.50;;;1.30;99.90;;;1.80;100.00;-20730.88;5062049;28;20285;-66
2020/12/29 01:20:59;;;;;;;0.60;0.50;;;1.40;99.90;;;1.81;100.00;-20731.16;5055194;28;20248;-64
2020/12/29 01:23:26;;;;;;;0.60;0.50;;;1.40;99.90;;;1.84;100.00;-20732.00;5055042;28;20185;-64
2020/12/29 01:25:53;;;;;;;0.60;0.50;;;1.40;99.90;;;1.83;100.00;-20731.72;5056164;28;20638;-64
2020/12/29 01:28:20;;;;;;;0.60;0.50;;;1.50;99.90;;;1.87;100.00;-20732.69;5056295;28;20717;-64
2020/12/29 01:30:47;;;;;;;0.70;0.65;;;1.50;99.90;;;1.91;100.00;-20733.97;5055824;28;20228;-64
2020/12/29 01:33:14;;;;;;;0.60;0.50;;;1.50;99.90;;;1.99;100.00;-20736.06;5055377;28;20205;-64
2020/12/29 01:35:41;;;;;;;0.60;0.57;;;1.60;99.90;;;1.97;100.00;-20735.50;5055529;28;20181;-64
2020/12/29 01:38:09;;;;;;;0.60;0.60;;;1.60;99.90;;;2.10;100.00;-20739.13;5056798;28;20270;-64
2020/12/29 01:40:36;;;;;;;1.00;0.90;;;1.70;99.90;;;2.18;100.00;-20741.38;5074965;28;20665;-66
2020/12/29 01:43:04;;;;;;;0.60;0.50;;;1.70;99.90;;;2.23;100.00;-20742.63;5075419;28;20614;-67
2020/12/29 01:45:30;;;;;;;0.60;0.50;;;1.80;99.90;;;2.31;100.00;-20744.72;5060703;28;20206;-64
2020/12/29 01:47:58;;;;;;;0.60;0.55;;;1.80;99.90;;;2.41;100.00;-20747.66;5055645;28;20530;-65
2020/12/29 01:50:26;;;;;;;0.60;0.50;;;1.90;99.90;;;2.56;100.00;-20751.56;5062526;28;20305;-65
2020/12/29 01:52:58;;;;;;;0.60;0.50;;;2.10;99.90;;;2.63;100.00;-20753.50;5060025;28;20197;-64
2020/12/29 01:55:27;;;;;;;0.60;0.50;;;2.10;99.90;;;2.69;100.00;-20755.03;5075630;28;20200;-65
2020/12/29 01:57:55;;;;;;;0.60;0.50;;;2.20;99.90;;;2.78;100.00;-20757.56;5075165;28;20219;-65
2020/12/29 02:00:23;;;;;;;0.60;0.60;;;2.20;99.90;;;2.80;100.00;-20758.25;5074755;28;20185;-65
2020/12/29 02:02:50;;;;;;;0.60;0.50;;;2.20;99.90;;;2.81;100.00;-20758.53;5072308;28;20279;-66
2020/12/29 02:05:17;;;;;;;0.88;0.82;;;2.20;99.90;;;2.89;100.00;-20760.75;5074532;28;20284;-65
2020/12/29 02:07:49;;;;;;;0.60;0.50;;;2.30;99.90;;;2.92;100.00;-20761.31;5063658;28;20311;-65
2020/12/29 02:10:16;;;;;;;1.05;0.95;;;2.30;99.90;;;2.95;100.00;-20762.16;5055138;28;20174;-64
2020/12/29 02:12:44;;;;;;;0.60;0.52;;;2.30;99.90;;;2.95;100.00;-20762.16;5054932;28;20200;-65
2020/12/29 02:15:11;;;;;;;0.60;0.50;;;2.30;99.90;;;2.98;100.00;-20763.00;5054681;28;20303;-65
2020/12/29 02:17:38;;;;;;;0.60;0.50;;;2.30;99.90;;;2.98;100.00;-20763.13;5064829;28;20604;-64
2020/12/29 02:20:07;;;;;;;0.60;0.50;;;2.30;99.90;;;2.98;100.00;-20763.00;5065505;28;20256;-64
2020/12/29 02:22:35;;;;;;;0.60;0.50;;;2.30;99.90;;;2.99;100.00;-20763.28;5054517;28;20561;-64
2020/12/29 02:25:06;;;;;;;0.60;0.60;;;2.30;99.90;;;3.01;100.00;-20763.84;5060990;28;20204;-65
2020/12/29 02:27:43;;;;;;;0.60;0.50;;;2.30;99.90;;;2.94;100.00;-20761.88;5074781;28;20594;-66
2020/12/29 02:30:10;;;;;;;0.60;0.60;;;2.30;99.90;;;3.01;100.00;-20763.84;5075176;28;20185;-64
2020/12/29 02:32:38;;;;;;;0.60;0.50;;;2.30;99.90;;;2.97;100.00;-20762.72;5071156;28;20776;-67
2020/12/29 02:35:06;;;;;;;0.60;0.57;;;2.30;99.90;;;3.00;100.00;-20763.69;5074169;28;20205;-64
2020/12/29 02:37:35;;;;;;;0.60;0.50;;;2.30;99.90;;;3.03;100.00;-20764.41;5074597;28;20677;-64
2020/12/29 02:40:02;;;;;;;0.60;0.60;;;2.40;99.90;;;3.04;100.00;-20764.81;5075031;28;20228;-65
2020/12/29 02:42:29;;;;;;;0.60;0.50;;;2.40;99.90;;;3.07;100.00;-20765.66;5071236;28;20249;-66
2020/12/29 02:44:56;;;;;;;0.60;0.60;;;2.40;99.90;;;3.08;100.00;-20765.78;5074447;28;20263;-65
2020/12/29 02:47:23;;;;;;;0.60;0.50;;;2.40;99.90;;;3.10;100.00;-20766.34;5074596;28;20183;-65
2020/12/29 02:49:50;;;;;;;0.60;0.60;;;2.40;99.90;;;3.08;100.00;-20765.78;5066596;28;20255;-65
2020/12/29 02:52:17;;;;;;;0.60;0.50;;;2.40;99.90;;;3.04;100.00;-20764.69;5052612;28;20243;-65
2020/12/29 02:54:45;;;;;;;0.60;0.60;;;2.30;99.90;;;3.06;100.00;-20765.22;5053922;28;20209;-65
2020/12/29 02:57:12;;;;;;;0.60;0.50;;;2.40;99.90;;;3.04;100.00;-20764.69;5057786;28;20209;-64
2020/12/29 02:59:38;;;;;;;0.60;0.50;;;2.40;99.90;;;3.00;100.00;-20763.56;5074014;28;20204;-64
2020/12/29 03:02:05;;;;;;;0.60;0.50;;;2.40;99.90;;;2.97;100.00;-20762.72;5073827;28;20707;-63
2020/12/29 03:04:32;;;;;;;0.60;0.50;;;2.30;99.90;;;2.87;100.00;-20760.06;5073274;28;20213;-64
2020/12/29 03:06:59;;;;;;;0.60;0.50;;;2.30;99.90;;;2.85;100.00;-20759.66;5073246;28;20217;-63
2020/12/29 03:09:26;;;;;;;0.60;0.57;;;2.30;99.90;;;2.74;100.00;-20756.59;5060440;28;20177;-64
2020/12/29 03:11:53;;;;;;;0.60;0.60;;;2.20;99.90;;;2.59;100.00;-20752.41;5056784;28;20220;-64
2020/12/29 03:14:20;;;;;;;0.60;0.50;;;2.10;99.90;;;2.45;100.00;-20748.63;5073594;28;20246;-64
2020/12/29 03:16:47;;;;;;;0.60;0.50;;;2.00;99.90;;;2.31;100.00;-20744.84;5065599;28;20637;-64
2020/12/29 03:19:22;;;;;;;0.60;0.50;;;1.90;99.90;;;2.24;100.00;-20742.91;5061984;28;20222;-64
2020/12/29 03:21:50;;;;;;;0.60;0.60;;;1.80;99.90;;;2.18;100.00;-20741.22;5069012;28;20197;-64
2020/12/29 03:24:17;;;;;;;0.60;0.50;;;1.70;99.90;;;2.14;100.00;-20740.25;5068395;28;20682;-64
2020/12/29 03:26:44;;;;;;;0.60;0.50;;;1.70;99.90;;;2.17;100.00;-20741.09;5053354;28;20185;-64
2020/12/29 03:29:12;;;;;;;0.60;0.50;;;1.70;99.90;;;2.21;100.00;-20742.06;5053777;28;20233;-64
2020/12/29 03:31:43;;;;;;;0.60;0.50;;;1.60;99.90;;;2.22;100.00;-20742.34;5053730;28;20185;-64
2020/12/29 03:34:16;;;;;;;0.60;0.60;;;1.70;99.90;;;2.31;100.00;-20744.84;5053366;28;20209;-64
2020/12/29 03:36:43;;;;;;;0.60;0.50;;;1.70;99.90;;;2.42;100.00;-20747.94;5054654;28;20268;-67
2020/12/29 03:39:10;;;;;;;0.60;0.60;;;1.80;99.90;;;2.48;100.00;-20749.47;5053898;28;20193;-64
2020/12/29 03:41:38;;;;;;;0.60;0.50;;;1.80;99.90;;;2.59;100.00;-20752.41;5062359;28;20617;-64
2020/12/29 03:44:05;;;;;;;0.60;0.60;;;1.90;99.90;;;2.60;100.00;-20752.66;5073466;28;20197;-64
2020/12/29 03:46:33;;;;;;;0.60;0.50;;;1.90;99.90;;;2.63;100.00;-20753.66;5063959;28;20186;-64
2020/12/29 03:49:00;;;;;;;0.60;0.50;;;2.00;99.90;;;2.69;100.00;-20755.19;5058700;28;20218;-65
2020/12/29 03:51:26;;;;;;;0.60;0.52;;;2.00;99.90;;;2.71;100.00;-20755.75;5053336;28;20633;-65
2020/12/29 03:53:54;;;;;;;0.60;0.50;;;2.00;99.90;;;2.74;100.00;-20756.59;5053430;28;20190;-64
2020/12/29 03:56:21;;;;;;;0.60;0.60;;;2.00;99.90;;;2.73;100.00;-20756.16;5053272;28;20764;-64
2020/12/29 03:58:48;;;;;;;0.60;0.50;;;2.00;99.90;;;2.69;100.00;-20755.19;5060587;28;20215;-64
2020/12/29 04:01:15;;;;;;;0.60;0.50;;;1.90;99.90;;;2.63;100.00;-20753.50;5063878;28;20185;-64
2020/12/29 04:03:44;;;;;;;0.60;0.50;;;1.90;99.90;;;2.62;100.00;-20753.38;5053106;28;20205;-64
2020/12/29 04:06:11;;;;;;;0.60;0.50;;;1.90;99.90;;;2.55;100.00;-20751.28;5070832;28;20220;-64
2020/12/29 04:08:39;;;;;;;0.60;0.50;;;1.90;99.90;;;2.48;100.00;-20749.31;5068042;28;20197;-65
2020/12/29 04:11:06;;;;;;;0.60;0.60;;;1.80;99.90;;;2.33;100.00;-20745.41;5071778;28;20530;-64
2020/12/29 04:13:51;;;;;;;0.60;0.50;;;1.80;99.90;;;2.28;100.00;-20743.88;5073130;28;20180;-65
2020/12/29 04:16:20;;;;;;;0.60;0.50;;;1.70;99.90;;;2.35;100.00;-20745.81;5071357;28;20196;-64
2020/12/29 04:18:49;;;;;;;0.60;0.50;;;1.70;99.90;;;2.42;100.00;-20747.78;5072907;28;20197;-63
2020/12/29 04:21:16;;;;;;;0.60;0.50;;;1.80;99.90;;;2.51;100.00;-20750.16;5054344;28;20197;-63
2020/12/29 04:23:47;;;;;;;0.60;0.50;;;1.80;99.90;;;2.58;100.00;-20752.13;5060355;28;20177;-63
2020/12/29 04:26:19;;;;;;;0.60;0.50;;;1.90;99.90;;;2.65;100.00;-20754.06;5056142;28;20208;-64
2020/12/29 04:28:47;;;;;;;0.60;0.50;;;2.00;99.90;;;2.67;100.00;-20754.63;5055752;28;20196;-64
2020/12/29 04:31:22;;;;;;;0.60;0.60;;;2.00;99.90;;;2.73;100.00;-20756.31;5073112;28;20190;-64
2020/12/29 04:33:54;;;;;;;0.60;0.60;;;2.00;99.90;;;2.77;100.00;-20757.41;5057312;28;20209;-64
2020/12/29 04:36:22;;;;;;;0.60;0.50;;;2.00;99.90;;;2.78;100.00;-20757.69;5056647;28;20194;-64
2020/12/29 04:38:54;;;;;;;0.60;0.60;;;2.10;99.90;;;2.78;100.00;-20757.56;5056443;28;20205;-65
2020/12/29 04:41:22;;;;;;;0.60;0.50;;;2.10;99.90;;;2.77;100.00;-20757.28;5056619;28;20174;-64
2020/12/29 04:43:55;;;;;;;0.60;0.50;;;2.10;99.90;;;2.69;100.00;-20755.19;5056849;28;20173;-66
2020/12/29 04:46:24;;;;;;;0.60;0.50;;;2.00;99.90;;;2.70;100.00;-20755.47;5058207;28;20182;-64
2020/12/29 04:48:53;;;;;;;0.60;0.50;;;2.00;99.90;;;2.75;100.00;-20756.84;5055300;28;20781;-64
2020/12/29 04:51:21;;;;;;;0.60;0.60;;;2.10;99.90;;;2.77;100.00;-20757.41;5056427;28;20198;-64
2020/12/29 04:53:57;;;;;;;0.60;0.50;;;2.10;99.90;;;2.79;100.00;-20757.97;5056123;28;20178;-64
2020/12/29 04:56:33;;;;;;;0.60;0.50;;;2.10;99.90;;;2.78;100.00;-20757.56;5056288;28;20660;-65
2020/12/29 04:59:01;;;;;;;0.60;0.50;;;2.00;99.90;;;2.75;100.00;-20756.72;5056007;28;20194;-65
2020/12/29 05:01:31;;;;;;;0.60;0.60;;;2.00;99.90;;;2.75;100.00;-20756.84;5067075;28;20204;-66
2020/12/29 05:04:01;;;;;;;0.60;0.60;;;2.00;99.90;;;2.72;100.00;-20755.88;5091526;28;20719;-65
2020/12/29 05:06:29;;;;;;;0.60;0.50;;;2.00;99.90;;;2.70;100.00;-20755.47;5091660;28;20192;-63
2020/12/29 05:08:56;;;;;;;0.60;0.50;;;2.00;99.90;;;2.68;100.00;-20754.91;5074781;28;20196;-64
2020/12/29 05:11:25;;;;;;;0.60;0.52;;;2.00;99.90;;;2.71;100.00;-20755.75;5075912;28;20185;-66
2020/12/29 05:13:52;;;;;;;0.60;0.50;;;2.00;99.90;;;2.74;100.00;-20756.44;5059085;28;20709;-64
2020/12/29 05:16:19;;;;;;;0.60;0.60;;;2.00;99.90;;;2.77;100.00;-20757.28;5055944;28;20186;-65
2020/12/29 05:18:46;;;;;;;0.60;0.50;;;2.10;99.90;;;2.78;100.00;-20757.56;5054932;28;20209;-64
2020/12/29 05:21:14;;;;;;;0.60;0.50;;;2.10;99.90;;;2.81;100.00;-20758.53;5055681;28;20557;-64
2020/12/29 05:23:41;;;;;;;0.60;0.50;;;2.10;99.90;;;2.77;100.00;-20757.41;5054443;28;20200;-63
2020/12/29 05:26:09;;;;;;;0.60;0.50;;;2.10;99.90;;;2.79;100.00;-20757.97;5055810;28;20294;-65
2020/12/29 05:28:37;;;;;;;0.60;0.50;;;2.00;99.90;;;2.77;100.00;-20757.41;5055633;28;20630;-65
2020/12/29 05:31:05;;;;;;;0.60;0.50;;;2.10;99.90;;;2.78;100.00;-20757.56;5055973;28;20618;-64
2020/12/29 05:33:33;;;;;;;0.60;0.60;;;2.00;99.90;;;2.77;100.00;-20757.41;5055502;28;20216;-64
2020/12/29 05:36:02;;;;;;;0.60;0.50;;;2.10;99.90;;;2.71;100.00;-20755.75;5054051;28;20197;-64
2020/12/29 05:38:30;;;;;;;0.60;0.60;;;2.00;99.90;;;2.71;100.00;-20755.75;5059449;28;20250;-66
2020/12/29 05:40:57;;;;;;;0.60;0.50;;;2.00;99.90;;;2.64;100.00;-20753.78;5075991;28;20189;-65
2020/12/29 05:43:30;;;;;;;0.60;0.50;;;2.00;99.90;;;2.55;100.00;-20751.41;5070657;28;20204;-65
2020/12/29 05:46:05;;;;;;;0.60;0.50;;;1.90;99.90;;;2.48;100.00;-20749.47;5065027;28;20263;-65
2020/12/29 05:48:33;;;;;;;0.60;0.60;;;1.90;99.90;;;2.41;100.00;-20747.66;5055199;28;20244;-65
2020/12/29 05:51:01;;;;;;;0.60;0.55;;;1.80;99.90;;;2.35;100.00;-20745.97;5070490;28;20201;-64
2020/12/29 05:53:31;;;;;;;0.60;0.60;;;1.70;99.90;;;2.24;100.00;-20742.91;5057643;28;20291;-64
2020/12/29 05:55:58;;;;;;;0.60;0.50;;;1.70;99.90;;;2.11;100.00;-20739.41;5055071;28;20261;-64
2020/12/29 05:58:26;;;;;;;0.60;0.50;;;1.60;99.90;;;1.92;100.00;-20734.25;5063069;28;20189;-64
2020/12/29 06:00:54;;;;;;;0.60;0.50;;;1.50;99.90;;;1.76;100.00;-20729.75;5065706;28;20199;-64
2020/12/29 06:03:21;;;;;;;0.60;0.60;;;1.40;99.90;;;1.63;100.00;-20726.28;5075283;28;20212;-63
2020/12/29 06:05:49;;;;;;;0.60;0.50;;;1.30;99.90;;;1.58;100.00;-20724.75;5074613;28;20197;-65
2020/12/29 06:08:17;;;;;;;0.60;0.60;;;1.20;99.90;;;1.44;100.00;-20720.97;5065333;28;20623;-65
2020/12/29 06:11:03;;;;;;;0.60;0.60;;;1.00;99.90;;;1.41;100.00;-20720.28;5065931;28;20210;-64
2020/12/29 06:13:37;;;;;;;0.60;0.50;;;1.00;99.90;;;1.30;100.00;-20717.19;5073205;28;20184;-65
2020/12/29 06:16:05;;;;;;;0.70;0.60;;;0.90;99.90;;;1.18;100.00;-20713.97;5074760;28;20588;-66
2020/12/29 06:18:35;;;;;;;0.60;0.55;;;0.90;99.90;;;1.09;100.00;-20711.47;5074845;28;20736;-66
2020/12/29 06:21:05;;;;;;;0.60;0.50;;;0.80;99.90;;;1.09;100.00;-20711.31;5057789;28;20235;-64
2020/12/29 06:23:45;;;;;;;0.60;0.60;;;0.70;99.90;;;0.88;100.00;-20705.72;5063291;28;20188;-65
2020/12/29 06:26:18;;;;;;;0.60;0.60;;;0.70;99.90;;;1.09;100.00;-20711.47;5073822;28;20189;-66
2020/12/29 06:28:49;;;;;;;0.60;0.60;;;0.80;99.90;;;0.99;100.00;-20708.66;5073822;28;20189;-64
2020/12/29 06:31:26;;;;;;;0.70;0.60;;;0.80;99.90;;;0.91;100.00;-20706.56;5074765;28;20227;-64
2020/12/29 06:33:55;;;;;;;0.60;0.50;;;0.60;99.90;;;0.93;100.00;-20707.13;5069221;28;20237;-64
2020/12/29 06:36:29;;;;;;;0.60;0.60;;;0.50;99.90;;;1.01;100.00;-20709.09;5073902;28;20181;-64
2020/12/29 06:39:07;;;;;;;0.60;0.50;;;0.50;99.90;;;1.06;100.00;-20710.47;5054178;28;20197;-64
2020/12/29 06:41:35;;;;;;;0.60;0.50;;;0.60;99.90;;;1.24;100.00;-20715.50;5057398;28;20193;-64
2020/12/29 06:44:03;;;;;;;0.60;0.50;;;0.80;99.90;;;1.36;100.00;-20718.88;5061640;28;20190;-64
2020/12/29 06:46:30;;;;;;;0.60;0.50;;;0.90;99.90;;;1.60;100.00;-20725.44;5054267;28;20181;-64
2020/12/29 06:49:17;;;;;;;0.60;0.50;;;1.00;99.90;;;1.69;100.00;-20727.81;5053196;28;20214;-64
2020/12/29 06:51:45;;;;;;;0.60;0.50;;;1.10;99.90;;;1.83;100.00;-20731.59;5062956;28;20238;-64
2020/12/29 06:54:16;;;;;;;0.60;0.60;;;1.30;99.90;;;1.87;100.00;-20732.84;5073897;28;20234;-64
2020/12/29 06:57:00;;;;;;;0.60;0.50;;;1.30;99.90;;;1.97;100.00;-20735.34;5073922;28;20177;-65
2020/12/29 06:59:39;;;;;;;0.60;0.50;;;1.30;99.90;;;2.11;100.00;-20739.41;5073489;28;20181;-65
2020/12/29 07:02:23;;;;;;;0.60;0.50;;;1.50;99.90;;;2.10;100.00;-20739.13;5074053;28;20265;-65
2020/12/29 07:04:52;;;;;;;0.60;0.50;;;1.50;99.90;;;2.07;100.00;-20738.16;5073736;28;20223;-65
2020/12/29 07:07:31;;;;;;;0.60;0.60;;;1.50;99.90;;;2.09;100.00;-20738.84;5059114;28;20540;-65
2020/12/29 07:10:11;;;;;;;0.60;0.50;;;1.50;99.90;;;2.13;100.00;-20739.97;5053920;28;20276;-65
2020/12/29 07:12:43;;;;;;;0.60;0.60;;;1.50;99.90;;;2.09;100.00;-20738.84;5053838;28;20542;-65
2020/12/29 07:15:14;;;;;;;0.60;0.50;;;1.50;99.90;;;2.07;100.00;-20738.28;5054313;28;20200;-65
2020/12/29 07:17:58;;;;;;;0.60;0.50;;;1.50;99.90;;;1.93;100.00;-20734.53;5052597;28;20197;-65
2020/12/29 07:20:31;;;;;;;0.60;0.60;;;1.40;99.90;;;1.80;100.00;-20730.88;5057311;28;20212;-66
2020/12/29 07:23:04;;;;;;;0.60;0.60;;;1.30;99.90;;;1.65;100.00;-20726.69;5073583;28;20590;-65
2020/12/29 07:25:32;;;;;;;0.60;0.52;;;1.20;99.90;;;1.65;100.00;-20726.69;5073363;28;20227;-65
2020/12/29 07:28:03;;;;;;;0.60;0.60;;;1.30;99.90;;;1.66;100.00;-20727.13;5072698;28;20189;-66
2020/12/29 07:30:31;;;;;;;0.60;0.60;;;1.30;99.90;;;1.79;100.00;-20730.59;5073422;28;20649;-65
2020/12/29 07:33:03;;;;;;;0.60;0.60;;;1.30;99.90;;;1.84;100.00;-20732.00;5073316;28;20242;-65
2020/12/29 07:35:33;;;;;;;0.60;0.50;;;1.40;99.90;;;1.97;100.00;-20735.50;5073663;28;20183;-66
2020/12/29 07:38:09;;;;;;;0.60;0.50;;;1.50;99.90;;;2.03;100.00;-20737.03;5064150;28;20193;-65
2020/12/29 07:40:36;;;;;;;0.60;0.50;;;1.50;99.90;;;2.08;100.00;-20738.44;5061486;28;20266;-66
2020/12/29 07:43:05;;;;;;;0.60;0.60;;;1.50;99.90;;;2.00;100.00;-20736.19;5065706;28;20196;-64
2020/12/29 07:45:37;;;;;;;0.60;0.50;;;1.50;99.90;;;1.93;100.00;-20734.53;5054910;28;20376;-64
2020/12/29 07:48:05;;;;;;;0.60;0.50;;;1.50;99.90;;;1.88;100.00;-20732.97;5070908;28;20211;-65
2020/12/29 07:50:34;;;;;;;0.60;0.50;;;1.40;99.90;;;1.92;100.00;-20734.25;5058163;28;20211;-65
2020/12/29 07:53:03;;;;;;;0.60;0.60;;;1.40;99.90;;;1.88;100.00;-20733.13;5065739;28;20196;-65
2020/12/29 07:55:31;;;;;;;0.60;0.60;;;1.40;99.90;;;2.00;100.00;-20736.19;5072500;28;20630;-64
2020/12/29 07:58:01;;;;;;;0.60;0.60;;;1.50;99.90;;;2.03;100.00;-20737.03;5068615;28;20201;-65
2020/12/29 08:00:29;;;;;;;0.63;0.60;;;1.60;99.90;;;2.21;100.00;-20742.06;5059978;28;20672;-65
2020/12/29 08:02:56;;;;;;;0.60;0.60;;;1.70;99.90;;;2.35;100.00;-20745.97;5065964;28;20193;-66
2020/12/29 08:05:25;;;;;;;0.60;0.60;;;1.70;99.90;;;2.45;100.00;-20748.47;5076651;28;20288;-65
2020/12/29 08:07:57;;;;;;;0.60;0.50;;;1.80;99.90;;;2.61;100.00;-20752.94;5068443;28;20199;-65
2020/12/29 08:10:26;;;;;;;0.80;0.60;;;1.90;99.90;;;2.64;100.00;-20753.94;5064308;28;20248;-64
2020/12/29 08:12:54;;;;;;;0.60;0.60;;;2.00;99.90;;;2.61;100.00;-20752.94;5057195;28;20264;-65
2020/12/29 08:15:26;;;;;;;0.60;0.60;;;2.00;99.90;;;2.76;100.00;-20757.13;5055842;28;20181;-65
2020/12/29 08:18:05;;;;;;;0.60;0.50;;;2.10;99.90;;;2.88;100.00;-20760.50;5063972;28;20239;-65
2020/12/29 08:20:40;;;;;;;0.60;0.50;;;2.20;99.90;;;2.94;100.00;-20761.88;5063949;28;20189;-64
2020/12/29 08:23:07;;;;;;;0.60;0.50;;;2.20;99.90;;;3.12;100.00;-20766.91;5057026;28;20193;-64
2020/12/29 08:25:35;;;;;;;0.60;0.60;;;2.30;99.90;;;3.13;100.00;-20767.31;5059739;28;20205;-64
2020/12/29 08:28:04;;;;;;;0.60;0.50;;;2.40;99.90;;;3.32;100.00;-20772.50;5068158;28;20212;-64
2020/12/29 08:30:33;;;;;;;0.60;0.50;;;2.40;99.90;;;3.23;100.00;-20769.97;5069429;28;20198;-65
2020/12/29 08:33:04;;;;;;;0.60;0.50;;;2.50;99.90;;;3.18;100.00;-20768.59;5076704;28;20177;-65
2020/12/29 08:35:41;;;;;;;0.60;0.50;;;2.50;99.90;;;3.25;100.00;-20770.53;5061470;28;20250;-64
2020/12/29 08:38:32;;;;;;;0.60;0.50;;;2.60;99.90;;;3.33;100.00;-20772.75;5066862;28;20242;-66
2020/12/29 08:41:13;;;;;;;0.60;0.50;;;2.70;99.90;;;3.47;100.00;-20776.41;5066485;28;20522;-66
2020/12/29 08:43:43;;;;;;;0.60;0.50;;;2.70;99.90;;;3.42;100.00;-20775.13;5061962;28;20250;-64
2020/12/29 08:46:12;;;;;;;0.60;0.50;;;2.80;99.90;;;3.52;100.00;-20777.94;5075461;28;20270;-66
2020/12/29 08:48:51;;;;;;;0.60;0.55;;;2.80;99.90;;;3.69;100.00;-20782.53;5067128;28;20221;-66
2020/12/29 08:51:21;;;;;;;0.60;0.60;;;2.90;99.90;;;3.56;100.00;-20779.03;5062900;28;20181;-65
2020/12/29 08:53:48;;;;;;;0.60;0.50;;;2.90;99.90;;;3.70;100.00;-20782.81;5069526;28;20599;-65
2020/12/29 08:56:23;;;;;;;0.60;0.60;;;3.00;99.90;;;3.78;100.00;-20784.91;5058874;28;20281;-65
2020/12/29 08:58:50;;;;;;;0.60;0.50;;;3.00;99.90;;;3.65;100.00;-20781.28;5072975;28;20242;-64
2020/12/29 09:01:34;;;;;;;0.60;0.60;;;3.10;99.90;;;3.75;100.00;-20784.06;5074082;28;20208;-65
2020/12/29 09:04:25;;;;;;;0.60;0.50;;;3.10;99.90;;;3.83;100.00;-20786.44;5061988;28;20217;-65
2020/12/29 09:06:57;;;;;;;0.60;0.60;;;3.20;99.90;;;3.89;100.00;-20787.97;5069717;28;20193;-65
2020/12/29 09:09:24;;;;;;;0.60;0.60;;;3.20;99.90;;;4.05;100.00;-20792.28;5066874;28;20186;-66
2020/12/29 09:12:12;;;;;;;0.60;0.55;;;3.20;99.90;;;3.90;100.00;-20788.09;5055031;28;20210;-65
2020/12/29 09:14:51;;;;;;;0.60;0.60;;;3.20;99.90;;;3.79;100.00;-20785.31;5056502;28;20578;-65
2020/12/29 09:17:19;;;;;;;0.60;0.50;;;3.20;99.90;;;3.90;100.00;-20788.25;5056516;28;20174;-64
2020/12/29 09:20:21;;;;;;;0.60;0.50;;;3.20;99.90;;;3.85;100.00;-20787.00;5056134;28;20260;-64
2020/12/29 09:22:55;;;;;;;0.60;0.60;;;3.20;99.90;;;3.83;100.00;-20786.28;5055522;28;20585;-65
2020/12/29 09:25:27;;;;;;;1.77;1.67;;;3.20;99.90;;;3.81;100.00;-20785.88;5057860;28;20213;-65
2020/12/29 09:28:09;;;;;;;0.60;0.50;;;3.20;99.90;;;3.77;100.00;-20784.63;5066482;28;20254;-65
2020/12/29 09:30:41;;;;;;;0.60;0.60;;;3.20;99.90;;;3.91;100.00;-20788.38;5076099;28;20169;-64
2020/12/29 09:33:08;;;;;;;0.60;0.60;;;3.20;99.90;;;3.92;100.00;-20788.66;5074364;28;20209;-65
2020/12/29 09:35:36;;;;;;;0.60;0.60;;;3.30;99.90;;;3.78;100.00;-20784.91;5066629;28;20185;-64
2020/12/29 09:38:03;;;;;;;0.60;0.60;;;3.20;99.90;;;3.80;100.00;-20785.47;5062889;28;20290;-64
2020/12/29 09:40:50;;;;;;;0.60;0.50;;;3.30;99.90;;;4.06;100.00;-20792.56;5075569;28;20185;-65
2020/12/29 09:43:17;;;;;;;0.70;0.68;;;3.40;99.90;;;4.26;100.00;-20798.13;5067191;28;20223;-65
2020/12/29 09:45:47;;;;;;;0.60;0.60;;;3.60;99.90;;;4.52;100.00;-20805.09;5068847;28;20197;-65
2020/12/29 09:48:16;;;;;;;0.60;0.50;;;3.80;99.90;;;4.83;100.00;-20813.59;5075269;28;20439;-65
2020/12/29 09:50:44;;;;;;;0.60;0.50;;;4.00;99.90;;;4.85;100.00;-20814.28;5073702;28;20458;-66
2020/12/29 09:53:11;;;;;;;0.60;0.50;;;4.10;99.90;;;4.93;100.00;-20816.25;5074335;28;20447;-65
2020/12/29 09:55:39;;;;;;;0.60;0.57;;;4.10;99.90;;;4.95;100.00;-20816.81;5075429;28;20254;-65
2020/12/29 09:58:06;;;;;;;0.60;0.60;;;4.10;99.90;;;4.84;100.00;-20814.00;5074506;28;20443;-65
2020/12/29 10:00:34;;;;;;;0.60;0.60;;;4.10;99.90;;;5.13;100.00;-20821.81;5065462;28;20800;-65
2020/12/29 10:03:01;;;;;;;0.60;0.60;;;4.10;99.90;;;4.90;100.00;-20815.41;5062122;28;20978;-65
2020/12/29 10:05:28;;;;;;;0.60;0.50;;;4.10;99.90;;;4.89;100.00;-20815.28;5064551;28;20456;-65
2020/12/29 10:07:56;;;;;;;0.70;0.60;;;4.10;99.90;;;4.74;100.00;-20811.22;5063852;28;20427;-69
2020/12/29 10:10:23;;;;;;;0.60;0.50;;;4.10;99.90;;;4.83;100.00;-20813.75;5064882;28;20485;-65
2020/12/29 10:12:50;;;;;;;0.60;0.60;;;4.10;99.90;;;4.87;100.00;-20814.72;5063374;28;20416;-65
2020/12/29 10:15:17;;;;;;;0.60;0.60;;;4.20;99.90;;;4.82;100.00;-20813.31;5057100;28;20481;-66
2020/12/29 10:17:44;;;;;;;0.60;0.50;;;4.20;99.90;;;4.77;100.00;-20811.94;5065001;28;20585;-65
2020/12/29 10:20:10;;;;;;;0.60;0.60;;;4.20;99.90;;;4.73;100.00;-20810.94;5068008;28;20531;-65
2020/12/29 10:22:37;;;;;;;0.60;0.60;;;4.20;99.90;;;5.00;100.00;-20818.34;5061908;28;20444;-65
2020/12/29 10:25:10;;;;;;;0.60;0.60;;;4.20;99.90;;;4.89;100.00;-20815.28;5062315;28;20547;-66
2020/12/29 10:27:37;;;;;;;0.60;0.60;;;4.20;99.90;;;5.06;100.00;-20819.88;5067465;28;20416;-65
2020/12/29 10:30:05;;;;;;;0.60;0.60;;;4.30;99.90;;;5.15;100.00;-20822.38;5069882;28;20473;-66
2020/12/29 10:32:32;;;;;;;0.60;0.50;;;4.40;99.90;;;5.04;100.00;-20819.31;5064346;28;20436;-65